sensor_id;sensor_type;location;lat;lon;timestamp;temperature;humidity
30037;DHT22;36325;51.512;-0.382;2022-08-21T00:02:02;16.70;99.90
30037;DHT22;36325;51.512;-0.382;2022-08-21T00:04:30;16.70;99.90
30037;DHT22;36325;51.512;-0.382;2022-08-21T00:06:58;16.70;99.90
30037;DHT22;36325;51.512;-0.382;2022-08-21T00:09:25;16.70;99.90
30037;DHT22;36325;51.512;-0.382;2022-08-21T00:11:52;16.70;99.90
30037;DHT22;36325;51.512;-0.382;2022-08-21T00:14:20;16.80;99.90
30037;DHT22;36325;51.512;-0.382;2022-08-21T00:16:47;16.70;99.90
30037;DHT22;36325;51.512;-0.382;2022-08-21T00:19:15;16.70;99.90
30037;DHT22;36325;51.512;-0.382;2022-08-21T00:21:42;16.60;99.90
30037;DHT22;36325;51.512;-0.382;2022-08-21T00:24:10;16.60;99.90
30037;DHT22;36325;51.512;-0.382;2022-08-21T00:26:37;16.60;99.90
30037;DHT22;36325;51.512;-0.382;2022-08-21T00:29:04;16.50;99.90
30037;DHT22;36325;51.512;-0.382;2022-08-21T00:31:32;16.50;99.90
30037;DHT22;36325;51.512;-0.382;2022-08-21T00:33:59;16.50;99.90
30037;DHT22;36325;51.512;-0.382;2022-08-21T00:36:27;16.40;99.90
30037;DHT22;36325;51.512;-0.382;2022-08-21T00:38:54;16.40;99.90
30037;DHT22;36325;51.512;-0.382;2022-08-21T00:41:21;16.40;99.90
30037;DHT22;36325;51.512;-0.382;2022-08-21T00:44:07;16.30;99.90
30037;DHT22;36325;51.512;-0.382;2022-08-21T00:46:35;16.30;99.90
30037;DHT22;36325;51.512;-0.382;2022-08-21T00:49:05;16.30;99.90
30037;DHT22;36325;51.512;-0.382;2022-08-21T00:51:39;16.30;99.90
30037;DHT22;36325;51.512;-0.382;2022-08-21T00:54:10;16.20;99.90
30037;DHT22;36325;51.512;-0.382;2022-08-21T00:56:42;16.20;99.90
30037;DHT22;36325;51.512;-0.382;2022-08-21T00:59:10;16.20;99.90
30037;DHT22;36325;51.512;-0.382;2022-08-21T01:01:39;16.10;99.90
30037;DHT22;36325;51.512;-0.382;2022-08-21T01:04:06;16.10;99.90
30037;DHT22;36325;51.512;-0.382;2022-08-21T01:06:33;16.10;99.90
30037;DHT22;36325;51.512;-0.382;2022-08-21T01:09:02;16.10;99.90
30037;DHT22;36325;51.512;-0.382;2022-08-21T01:11:30;16.10;99.90
30037;DHT22;36325;51.512;-0.382;2022-08-21T01:13:57;16.10;99.90
30037;DHT22;36325;51.512;-0.382;2022-08-21T01:16:25;16.10;99.90
30037;DHT22;36325;51.512;-0.382;2022-08-21T01:18:52;16.20;99.90
30037;DHT22;36325;51.512;-0.382;2022-08-21T01:21:23;16.20;99.90
30037;DHT22;36325;51.512;-0.382;2022-08-21T01:23:55;16.20;99.90
30037;DHT22;36325;51.512;-0.382;2022-08-21T01:26:29;16.20;99.90
30037;DHT22;36325;51.512;-0.382;2022-08-21T01:31:45;16.20;99.90
30037;DHT22;36325;51.512;-0.382;2022-08-21T01:34:13;16.20;99.90
30037;DHT22;36325;51.512;-0.382;2022-08-21T01:36:40;16.20;99.90
30037;DHT22;36325;51.512;-0.382;2022-08-21T01:39:07;16.20;99.90
30037;DHT22;36325;51.512;-0.382;2022-08-21T01:41:34;16.20;99.90
30037;DHT22;36325;51.512;-0.382;2022-08-21T01:44:02;16.20;99.90
30037;DHT22;36325;51.512;-0.382;2022-08-21T01:46:30;16.20;99.90
30037;DHT22;36325;51.512;-0.382;2022-08-21T01:48:57;16.20;99.90
30037;DHT22;36325;51.512;-0.382;2022-08-21T01:51:25;16.10;99.90
30037;DHT22;36325;51.512;-0.382;2022-08-21T01:53:52;16.10;99.90
30037;DHT22;36325;51.512;-0.382;2022-08-21T01:56:19;16.10;99.90
30037;DHT22;36325;51.512;-0.382;2022-08-21T01:58:47;16.10;99.90
30037;DHT22;36325;51.512;-0.382;2022-08-21T02:01:14;16.10;99.90
30037;DHT22;36325;51.512;-0.382;2022-08-21T02:03:42;16.10;99.90
30037;DHT22;36325;51.512;-0.382;2022-08-21T02:06:13;16.10;99.90
30037;DHT22;36325;51.512;-0.382;2022-08-21T02:08:41;16.00;99.90
30037;DHT22;36325;51.512;-0.382;2022-08-21T02:11:09;16.00;99.90
30037;DHT22;36325;51.512;-0.382;2022-08-21T02:13:36;16.00;99.90
30037;DHT22;36325;51.512;-0.382;2022-08-21T02:16:03;16.00;99.90
30037;DHT22;36325;51.512;-0.382;2022-08-21T02:18:31;16.00;99.90
30037;DHT22;36325;51.512;-0.382;2022-08-21T02:20:58;16.00;99.90
30037;DHT22;36325;51.512;-0.382;2022-08-21T02:23:26;15.90;99.90
30037;DHT22;36325;51.512;-0.382;2022-08-21T02:26:02;15.90;99.90
30037;DHT22;36325;51.512;-0.382;2022-08-21T02:28:29;15.90;99.90
30037;DHT22;36325;51.512;-0.382;2022-08-21T02:30:56;15.90;99.90
30037;DHT22;36325;51.512;-0.382;2022-08-21T02:33:26;15.80;99.90
30037;DHT22;36325;51.512;-0.382;2022-08-21T02:35:56;15.80;99.90
30037;DHT22;36325;51.512;-0.382;2022-08-21T02:38:27;15.80;99.90
30037;DHT22;36325;51.512;-0.382;2022-08-21T02:40:56;15.80;99.90
30037;DHT22;36325;51.512;-0.382;2022-08-21T02:43:25;15.70;99.90
30037;DHT22;36325;51.512;-0.382;2022-08-21T02:45:54;15.80;99.90
30037;DHT22;36325;51.512;-0.382;2022-08-21T02:48:25;15.70;99.90
30037;DHT22;36325;51.512;-0.382;2022-08-21T02:50:55;15.70;99.90
30037;DHT22;36325;51.512;-0.382;2022-08-21T02:53:23;15.70;99.90
30037;DHT22;36325;51.512;-0.382;2022-08-21T02:55:52;15.60;99.90
30037;DHT22;36325;51.512;-0.382;2022-08-21T02:58:24;15.60;99.90
30037;DHT22;36325;51.512;-0.382;2022-08-21T03:00:52;15.60;99.90
30037;DHT22;36325;51.512;-0.382;2022-08-21T03:03:20;15.50;99.90
30037;DHT22;36325;51.512;-0.382;2022-08-21T03:05:48;15.60;99.90
30037;DHT22;36325;51.512;-0.382;2022-08-21T03:08:17;15.50;99.90
30037;DHT22;36325;51.512;-0.382;2022-08-21T03:10:48;15.50;99.90
30037;DHT22;36325;51.512;-0.382;2022-08-21T03:13:17;15.50;99.90
30037;DHT22;36325;51.512;-0.382;2022-08-21T03:15:45;15.50;99.90
30037;DHT22;36325;51.512;-0.382;2022-08-21T03:18:13;15.50;99.90
30037;DHT22;36325;51.512;-0.382;2022-08-21T03:20:42;15.50;99.90
30037;DHT22;36325;51.512;-0.382;2022-08-21T03:23:09;15.50;99.90
30037;DHT22;36325;51.512;-0.382;2022-08-21T03:25:39;15.40;99.90
30037;DHT22;36325;51.512;-0.382;2022-08-21T03:28:10;15.40;99.90
30037;DHT22;36325;51.512;-0.382;2022-08-21T03:30:40;15.40;99.90
30037;DHT22;36325;51.512;-0.382;2022-08-21T03:33:08;15.40;99.90
30037;DHT22;36325;51.512;-0.382;2022-08-21T03:35:36;15.40;99.90
30037;DHT22;36325;51.512;-0.382;2022-08-21T03:38:03;15.40;99.90
30037;DHT22;36325;51.512;-0.382;2022-08-21T03:40:30;15.30;99.90
30037;DHT22;36325;51.512;-0.382;2022-08-21T03:42:58;15.40;99.90
30037;DHT22;36325;51.512;-0.382;2022-08-21T03:45:25;15.30;99.90
30037;DHT22;36325;51.512;-0.382;2022-08-21T03:47:59;15.30;99.90
30037;DHT22;36325;51.512;-0.382;2022-08-21T03:50:30;15.30;99.90
30037;DHT22;36325;51.512;-0.382;2022-08-21T03:52:58;15.30;99.90
30037;DHT22;36325;51.512;-0.382;2022-08-21T03:55:26;15.30;99.90
30037;DHT22;36325;51.512;-0.382;2022-08-21T03:57:53;15.30;99.90
30037;DHT22;36325;51.512;-0.382;2022-08-21T04:00:21;15.20;99.90
30037;DHT22;36325;51.512;-0.382;2022-08-21T04:02:49;15.20;99.90
30037;DHT22;36325;51.512;-0.382;2022-08-21T04:05:18;15.20;99.90
30037;DHT22;36325;51.512;-0.382;2022-08-21T04:08:04;15.20;99.90
30037;DHT22;36325;51.512;-0.382;2022-08-21T04:10:34;15.10;99.90
30037;DHT22;36325;51.512;-0.382;2022-08-21T04:13:03;15.10;99.90
30037;DHT22;36325;51.512;-0.382;2022-08-21T04:15:30;15.10;99.90
30037;DHT22;36325;51.512;-0.382;2022-08-21T04:17:57;15.10;99.90
30037;DHT22;36325;51.512;-0.382;2022-08-21T04:20:26;15.10;99.90
30037;DHT22;36325;51.512;-0.382;2022-08-21T04:22:53;15.10;99.90
30037;DHT22;36325;51.512;-0.382;2022-08-21T04:25:22;15.10;99.90
30037;DHT22;36325;51.512;-0.382;2022-08-21T04:27:49;15.10;99.90
30037;DHT22;36325;51.512;-0.382;2022-08-21T04:30:18;15.00;99.90
30037;DHT22;36325;51.512;-0.382;2022-08-21T04:32:47;15.10;99.90
30037;DHT22;36325;51.512;-0.382;2022-08-21T04:35:17;15.00;99.90
30037;DHT22;36325;51.512;-0.382;2022-08-21T04:37:46;15.00;99.90
30037;DHT22;36325;51.512;-0.382;2022-08-21T04:40:15;15.00;99.90
30037;DHT22;36325;51.512;-0.382;2022-08-21T04:42:48;15.00;99.90
30037;DHT22;36325;51.512;-0.382;2022-08-21T04:45:27;15.00;99.90
30037;DHT22;36325;51.512;-0.382;2022-08-21T04:47:56;15.00;99.90
30037;DHT22;36325;51.512;-0.382;2022-08-21T04:50:36;15.00;99.90
30037;DHT22;36325;51.512;-0.382;2022-08-21T04:53:08;15.00;99.90
30037;DHT22;36325;51.512;-0.382;2022-08-21T04:55:35;15.00;99.90
30037;DHT22;36325;51.512;-0.382;2022-08-21T04:58:07;15.10;99.90
30037;DHT22;36325;51.512;-0.382;2022-08-21T05:00:36;15.00;99.90
30037;DHT22;36325;51.512;-0.382;2022-08-21T05:03:04;15.00;99.90
30037;DHT22;36325;51.512;-0.382;2022-08-21T05:05:33;15.10;99.90
30037;DHT22;36325;51.512;-0.382;2022-08-21T05:08:02;15.10;99.90
30037;DHT22;36325;51.512;-0.382;2022-08-21T05:10:30;15.10;99.90
30037;DHT22;36325;51.512;-0.382;2022-08-21T05:12:58;15.10;99.90
30037;DHT22;36325;51.512;-0.382;2022-08-21T05:15:27;15.10;99.90
30037;DHT22;36325;51.512;-0.382;2022-08-21T05:17:54;15.20;99.90
30037;DHT22;36325;51.512;-0.382;2022-08-21T05:20:25;15.20;99.90
30037;DHT22;36325;51.512;-0.382;2022-08-21T05:22:52;15.20;99.90
30037;DHT22;36325;51.512;-0.382;2022-08-21T05:25:19;15.20;99.90
30037;DHT22;36325;51.512;-0.382;2022-08-21T05:27:48;15.30;99.90
30037;DHT22;36325;51.512;-0.382;2022-08-21T05:30:15;15.30;99.90
30037;DHT22;36325;51.512;-0.382;2022-08-21T05:32:42;15.30;99.90
30037;DHT22;36325;51.512;-0.382;2022-08-21T05:35:09;15.30;99.90
30037;DHT22;36325;51.512;-0.382;2022-08-21T05:37:39;15.40;99.90
30037;DHT22;36325;51.512;-0.382;2022-08-21T05:40:07;15.40;99.90
30037;DHT22;36325;51.512;-0.382;2022-08-21T05:42:49;15.50;99.90
30037;DHT22;36325;51.512;-0.382;2022-08-21T05:45:20;15.60;99.90
30037;DHT22;36325;51.512;-0.382;2022-08-21T05:48:15;15.60;99.90
30037;DHT22;36325;51.512;-0.382;2022-08-21T05:50:45;15.70;99.90
30037;DHT22;36325;51.512;-0.382;2022-08-21T05:53:14;15.70;99.90
30037;DHT22;36325;51.512;-0.382;2022-08-21T05:55:42;15.70;99.90
30037;DHT22;36325;51.512;-0.382;2022-08-21T05:58:14;15.80;99.90
30037;DHT22;36325;51.512;-0.382;2022-08-21T06:00:43;15.80;99.90
30037;DHT22;36325;51.512;-0.382;2022-08-21T06:03:16;15.80;99.90
30037;DHT22;36325;51.512;-0.382;2022-08-21T06:05:45;15.90;99.90
30037;DHT22;36325;51.512;-0.382;2022-08-21T06:08:13;15.90;99.90
30037;DHT22;36325;51.512;-0.382;2022-08-21T06:10:41;16.00;99.90
30037;DHT22;36325;51.512;-0.382;2022-08-21T06:13:09;16.00;99.90
30037;DHT22;36325;51.512;-0.382;2022-08-21T06:15:36;16.10;99.90
30037;DHT22;36325;51.512;-0.382;2022-08-21T06:18:04;16.20;99.90
30037;DHT22;36325;51.512;-0.382;2022-08-21T06:20:32;16.30;99.90
30037;DHT22;36325;51.512;-0.382;2022-08-21T06:22:59;16.40;99.90
30037;DHT22;36325;51.512;-0.382;2022-08-21T06:25:28;16.50;99.90
30037;DHT22;36325;51.512;-0.382;2022-08-21T06:28:08;16.60;99.90
30037;DHT22;36325;51.512;-0.382;2022-08-21T06:30:37;16.80;99.90
30037;DHT22;36325;51.512;-0.382;2022-08-21T06:33:06;16.80;99.90
30037;DHT22;36325;51.512;-0.382;2022-08-21T06:35:34;16.80;99.90
30037;DHT22;36325;51.512;-0.382;2022-08-21T06:38:01;16.80;99.90
30037;DHT22;36325;51.512;-0.382;2022-08-21T06:40:30;16.90;99.90
30037;DHT22;36325;51.512;-0.382;2022-08-21T06:43:08;16.90;99.90
30037;DHT22;36325;51.512;-0.382;2022-08-21T06:45:36;16.90;99.90
30037;DHT22;36325;51.512;-0.382;2022-08-21T06:48:04;17.00;99.90
30037;DHT22;36325;51.512;-0.382;2022-08-21T06:50:31;17.10;99.90
30037;DHT22;36325;51.512;-0.382;2022-08-21T06:53:00;17.10;99.90
30037;DHT22;36325;51.512;-0.382;2022-08-21T06:55:28;17.20;99.90
30037;DHT22;36325;51.512;-0.382;2022-08-21T06:57:55;17.30;99.90
30037;DHT22;36325;51.512;-0.382;2022-08-21T07:00:22;17.90;99.90
30037;DHT22;36325;51.512;-0.382;2022-08-21T07:02:50;17.40;99.90
30037;DHT22;36325;51.512;-0.382;2022-08-21T07:05:17;17.50;99.90
30037;DHT22;36325;51.512;-0.382;2022-08-21T07:07:45;17.50;99.90
30037;DHT22;36325;51.512;-0.382;2022-08-21T07:10:14;17.60;99.90
30037;DHT22;36325;51.512;-0.382;2022-08-21T07:12:49;17.70;99.90
30037;DHT22;36325;51.512;-0.382;2022-08-21T07:15:16;17.80;99.90
30037;DHT22;36325;51.512;-0.382;2022-08-21T07:17:44;17.80;99.90
30037;DHT22;36325;51.512;-0.382;2022-08-21T07:20:11;17.90;99.90
30037;DHT22;36325;51.512;-0.382;2022-08-21T07:22:40;18.00;99.90
30037;DHT22;36325;51.512;-0.382;2022-08-21T07:25:07;18.00;99.90
30037;DHT22;36325;51.512;-0.382;2022-08-21T07:27:35;18.10;99.90
30037;DHT22;36325;51.512;-0.382;2022-08-21T07:30:03;18.10;99.90
30037;DHT22;36325;51.512;-0.382;2022-08-21T07:32:31;18.20;99.90
30037;DHT22;36325;51.512;-0.382;2022-08-21T07:34:58;18.20;99.90
30037;DHT22;36325;51.512;-0.382;2022-08-21T07:37:25;18.20;99.90
30037;DHT22;36325;51.512;-0.382;2022-08-21T07:39:55;18.30;99.90
30037;DHT22;36325;51.512;-0.382;2022-08-21T07:42:23;18.30;99.90
30037;DHT22;36325;51.512;-0.382;2022-08-21T07:44:51;18.30;99.90
30037;DHT22;36325;51.512;-0.382;2022-08-21T07:47:18;18.30;99.90
30037;DHT22;36325;51.512;-0.382;2022-08-21T07:49:51;18.30;99.90
30037;DHT22;36325;51.512;-0.382;2022-08-21T07:52:18;18.30;99.90
30037;DHT22;36325;51.512;-0.382;2022-08-21T07:54:49;18.40;99.90
30037;DHT22;36325;51.512;-0.382;2022-08-21T07:57:16;18.50;99.90
30037;DHT22;36325;51.512;-0.382;2022-08-21T07:59:44;18.50;99.90
30037;DHT22;36325;51.512;-0.382;2022-08-21T08:02:25;18.60;99.90
30037;DHT22;36325;51.512;-0.382;2022-08-21T08:04:52;18.70;99.90
30037;DHT22;36325;51.512;-0.382;2022-08-21T08:07:20;18.80;99.90
30037;DHT22;36325;51.512;-0.382;2022-08-21T08:09:47;18.90;99.90
30037;DHT22;36325;51.512;-0.382;2022-08-21T08:12:14;19.00;99.90
30037;DHT22;36325;51.512;-0.382;2022-08-21T08:14:42;19.20;99.90
30037;DHT22;36325;51.512;-0.382;2022-08-21T08:17:09;19.40;99.90
30037;DHT22;36325;51.512;-0.382;2022-08-21T08:19:37;19.50;99.90
30037;DHT22;36325;51.512;-0.382;2022-08-21T08:22:13;19.60;99.90
30037;DHT22;36325;51.512;-0.382;2022-08-21T08:24:41;19.70;99.90
30037;DHT22;36325;51.512;-0.382;2022-08-21T08:27:08;19.80;99.90
30037;DHT22;36325;51.512;-0.382;2022-08-21T08:29:35;20.00;99.90
30037;DHT22;36325;51.512;-0.382;2022-08-21T08:32:04;20.20;99.90
30037;DHT22;36325;51.512;-0.382;2022-08-21T08:34:31;20.30;99.90
30037;DHT22;36325;51.512;-0.382;2022-08-21T08:36:59;20.30;99.90
30037;DHT22;36325;51.512;-0.382;2022-08-21T08:39:26;20.30;99.90
30037;DHT22;36325;51.512;-0.382;2022-08-21T08:42:15;20.60;99.90
30037;DHT22;36325;51.512;-0.382;2022-08-21T08:47:31;21.10;99.90
30037;DHT22;36325;51.512;-0.382;2022-08-21T08:52:53;21.50;99.90
30037;DHT22;36325;51.512;-0.382;2022-08-21T08:55:28;21.80;99.90
30037;DHT22;36325;51.512;-0.382;2022-08-21T08:57:59;22.10;99.90
30037;DHT22;36325;51.512;-0.382;2022-08-21T09:00:26;22.40;99.90
30037;DHT22;36325;51.512;-0.382;2022-08-21T09:02:59;22.80;99.90
30037;DHT22;36325;51.512;-0.382;2022-08-21T09:05:52;23.30;99.90
30037;DHT22;36325;51.512;-0.382;2022-08-21T09:08:49;23.30;99.90
30037;DHT22;36325;51.512;-0.382;2022-08-21T09:14:43;24.30;99.90
30037;DHT22;36325;51.512;-0.382;2022-08-21T09:17:34;24.20;99.90
30037;DHT22;36325;51.512;-0.382;2022-08-21T09:23:22;24.30;99.90
30037;DHT22;36325;51.512;-0.382;2022-08-21T09:28:26;24.30;99.90
30037;DHT22;36325;51.512;-0.382;2022-08-21T09:30:55;24.20;99.90
30037;DHT22;36325;51.512;-0.382;2022-08-21T09:33:22;24.30;99.90
30037;DHT22;36325;51.512;-0.382;2022-08-21T09:35:51;24.30;99.90
30037;DHT22;36325;51.512;-0.382;2022-08-21T09:38:30;24.30;99.90
30037;DHT22;36325;51.512;-0.382;2022-08-21T09:41:09;24.20;99.90
30037;DHT22;36325;51.512;-0.382;2022-08-21T09:43:38;24.30;99.90
30037;DHT22;36325;51.512;-0.382;2022-08-21T09:46:12;24.30;99.90
30037;DHT22;36325;51.512;-0.382;2022-08-21T09:48:51;24.20;99.90
30037;DHT22;36325;51.512;-0.382;2022-08-21T09:51:31;24.10;99.90
30037;DHT22;36325;51.512;-0.382;2022-08-21T09:57:12;24.00;99.90
30037;DHT22;36325;51.512;-0.382;2022-08-21T10:00:24;23.90;99.90
30037;DHT22;36325;51.512;-0.382;2022-08-21T10:02:52;23.80;99.90
30037;DHT22;36325;51.512;-0.382;2022-08-21T10:05:25;23.60;99.90
30037;DHT22;36325;51.512;-0.382;2022-08-21T10:07:53;23.40;99.90
30037;DHT22;36325;51.512;-0.382;2022-08-21T10:10:23;23.40;99.90
30037;DHT22;36325;51.512;-0.382;2022-08-21T10:13:00;23.50;99.90
30037;DHT22;36325;51.512;-0.382;2022-08-21T10:18:21;23.50;99.90
30037;DHT22;36325;51.512;-0.382;2022-08-21T10:20:58;23.50;99.90
30037;DHT22;36325;51.512;-0.382;2022-08-21T10:32:08;23.90;99.90
30037;DHT22;36325;51.512;-0.382;2022-08-21T10:40:34;23.80;99.90
30037;DHT22;36325;51.512;-0.382;2022-08-21T10:48:35;23.20;99.90
30037;DHT22;36325;51.512;-0.382;2022-08-21T10:51:10;23.10;99.90
30037;DHT22;36325;51.512;-0.382;2022-08-21T10:54:06;23.00;99.90
30037;DHT22;36325;51.512;-0.382;2022-08-21T10:56:41;23.00;99.90
30037;DHT22;36325;51.512;-0.382;2022-08-21T11:00:21;23.00;99.90
30037;DHT22;36325;51.512;-0.382;2022-08-21T11:02:43;22.90;99.90
30037;DHT22;36325;51.512;-0.382;2022-08-21T11:05:16;22.90;99.90
30037;DHT22;36325;51.512;-0.382;2022-08-21T11:08:02;22.90;99.90
30037;DHT22;36325;51.512;-0.382;2022-08-21T11:10:37;22.80;99.90
30037;DHT22;36325;51.512;-0.382;2022-08-21T11:13:27;22.90;99.90
30037;DHT22;36325;51.512;-0.382;2022-08-21T11:16:24;23.00;99.90
30037;DHT22;36325;51.512;-0.382;2022-08-21T11:19:13;23.10;99.90
30037;DHT22;36325;51.512;-0.382;2022-08-21T11:24:52;23.50;99.90
30037;DHT22;36325;51.512;-0.382;2022-08-21T11:27:36;23.60;99.90
30037;DHT22;36325;51.512;-0.382;2022-08-21T11:30:07;23.60;99.90
30037;DHT22;36325;51.512;-0.382;2022-08-21T11:43:46;24.10;99.90
30037;DHT22;36325;51.512;-0.382;2022-08-21T11:46:28;24.20;99.90
30037;DHT22;36325;51.512;-0.382;2022-08-21T11:52:08;24.60;99.90
30037;DHT22;36325;51.512;-0.382;2022-08-21T11:54:42;24.80;99.90
30037;DHT22;36325;51.512;-0.382;2022-08-21T11:57:34;25.00;99.90
30037;DHT22;36325;51.512;-0.382;2022-08-21T12:00:26;25.40;99.90
30037;DHT22;36325;51.512;-0.382;2022-08-21T12:02:58;26.10;99.90
30037;DHT22;36325;51.512;-0.382;2022-08-21T12:05:39;26.50;99.90
30037;DHT22;36325;51.512;-0.382;2022-08-21T12:08:13;26.90;99.90
30037;DHT22;36325;51.512;-0.382;2022-08-21T12:11:45;27.70;99.90
30037;DHT22;36325;51.512;-0.382;2022-08-21T12:16:40;28.90;99.90
30037;DHT22;36325;51.512;-0.382;2022-08-21T12:19:27;28.80;99.90
30037;DHT22;36325;51.512;-0.382;2022-08-21T12:21:59;28.90;99.90
30037;DHT22;36325;51.512;-0.382;2022-08-21T12:26:56;28.90;99.90
30037;DHT22;36325;51.512;-0.382;2022-08-21T12:29:32;28.90;99.90
30037;DHT22;36325;51.512;-0.382;2022-08-21T12:32:02;29.40;99.90
30037;DHT22;36325;51.512;-0.382;2022-08-21T12:34:37;29.90;99.50
30037;DHT22;36325;51.512;-0.382;2022-08-21T12:37:24;30.50;98.70
30037;DHT22;36325;51.512;-0.382;2022-08-21T12:39:58;31.40;96.60
30037;DHT22;36325;51.512;-0.382;2022-08-21T12:42:37;31.50;96.40
30037;DHT22;36325;51.512;-0.382;2022-08-21T12:45:19;31.40;95.90
30037;DHT22;36325;51.512;-0.382;2022-08-21T12:50:32;31.10;94.50
30037;DHT22;36325;51.512;-0.382;2022-08-21T12:58:23;31.30;92.80
30037;DHT22;36325;51.512;-0.382;2022-08-21T13:01:00;31.30;92.10
30037;DHT22;36325;51.512;-0.382;2022-08-21T13:03:29;31.60;91.60
30037;DHT22;36325;51.512;-0.382;2022-08-21T13:05:58;32.00;90.90
30037;DHT22;36325;51.512;-0.382;2022-08-21T13:08:26;32.00;90.30
30037;DHT22;36325;51.512;-0.382;2022-08-21T13:11:00;31.90;90.10
30037;DHT22;36325;51.512;-0.382;2022-08-21T13:13:35;31.80;89.20
30037;DHT22;36325;51.512;-0.382;2022-08-21T13:16:05;31.70;89.40
30037;DHT22;36325;51.512;-0.382;2022-08-21T13:18:36;31.80;88.60
30037;DHT22;36325;51.512;-0.382;2022-08-21T13:21:12;32.30;87.00
30037;DHT22;36325;51.512;-0.382;2022-08-21T13:23:40;32.40;85.80
30037;DHT22;36325;51.512;-0.382;2022-08-21T13:26:15;32.90;85.20
30037;DHT22;36325;51.512;-0.382;2022-08-21T13:28:45;33.40;83.00
30037;DHT22;36325;51.512;-0.382;2022-08-21T13:31:26;34.50;80.40
30037;DHT22;36325;51.512;-0.382;2022-08-21T13:33:55;34.90;75.30
30037;DHT22;36325;51.512;-0.382;2022-08-21T13:36:29;35.60;75.70
30037;DHT22;36325;51.512;-0.382;2022-08-21T13:38:57;36.30;73.70
30037;DHT22;36325;51.512;-0.382;2022-08-21T13:41:30;37.30;72.70
30037;DHT22;36325;51.512;-0.382;2022-08-21T13:46:35;38.60;64.60
30037;DHT22;36325;51.512;-0.382;2022-08-21T13:49:05;38.50;62.70
30037;DHT22;36325;51.512;-0.382;2022-08-21T13:51:33;38.70;60.80
30037;DHT22;36325;51.512;-0.382;2022-08-21T13:54:02;39.40;61.10
30037;DHT22;36325;51.512;-0.382;2022-08-21T13:56:45;39.90;59.10
30037;DHT22;36325;51.512;-0.382;2022-08-21T13:59:30;40.20;57.80
30037;DHT22;36325;51.512;-0.382;2022-08-21T14:02:18;40.30;56.50
30037;DHT22;36325;51.512;-0.382;2022-08-21T14:07:31;41.10;55.40
30037;DHT22;36325;51.512;-0.382;2022-08-21T14:10:15;41.40;53.50
30037;DHT22;36325;51.512;-0.382;2022-08-21T14:12:47;41.60;52.90
30037;DHT22;36325;51.512;-0.382;2022-08-21T14:15:17;41.70;52.50
30037;DHT22;36325;51.512;-0.382;2022-08-21T14:17:45;41.60;51.90
30037;DHT22;36325;51.512;-0.382;2022-08-21T14:20:32;41.00;51.60
30037;DHT22;36325;51.512;-0.382;2022-08-21T14:23:00;40.10;51.30
30037;DHT22;36325;51.512;-0.382;2022-08-21T14:26:03;39.40;51.80
30037;DHT22;36325;51.512;-0.382;2022-08-21T14:28:49;39.90;51.60
30037;DHT22;36325;51.512;-0.382;2022-08-21T14:31:20;40.60;51.20
30037;DHT22;36325;51.512;-0.382;2022-08-21T14:33:48;40.90;50.90
30037;DHT22;36325;51.512;-0.382;2022-08-21T14:36:15;40.70;50.80
30037;DHT22;36325;51.512;-0.382;2022-08-21T14:38:42;40.70;50.90
30037;DHT22;36325;51.512;-0.382;2022-08-21T14:41:24;41.20;50.50
30037;DHT22;36325;51.512;-0.382;2022-08-21T14:43:54;41.50;49.10
30037;DHT22;36325;51.512;-0.382;2022-08-21T14:46:29;41.20;49.50
30037;DHT22;36325;51.512;-0.382;2022-08-21T14:48:57;41.20;49.30
30037;DHT22;36325;51.512;-0.382;2022-08-21T14:51:25;41.00;49.00
30037;DHT22;36325;51.512;-0.382;2022-08-21T14:53:52;40.40;48.90
30037;DHT22;36325;51.512;-0.382;2022-08-21T14:56:20;39.80;49.20
30037;DHT22;36325;51.512;-0.382;2022-08-21T14:58:49;39.30;49.30
30037;DHT22;36325;51.512;-0.382;2022-08-21T15:01:20;39.10;49.50
30037;DHT22;36325;51.512;-0.382;2022-08-21T15:03:48;39.10;49.40
30037;DHT22;36325;51.512;-0.382;2022-08-21T15:06:17;39.50;49.40
30037;DHT22;36325;51.512;-0.382;2022-08-21T15:08:48;39.90;49.10
30037;DHT22;36325;51.512;-0.382;2022-08-21T15:11:20;40.50;48.80
30037;DHT22;36325;51.512;-0.382;2022-08-21T15:14:10;40.70;48.30
30037;DHT22;36325;51.512;-0.382;2022-08-21T15:16:38;39.00;48.80
30037;DHT22;36325;51.512;-0.382;2022-08-21T15:19:05;35.10;51.10
30037;DHT22;36325;51.512;-0.382;2022-08-21T15:21:32;35.00;51.60
30037;DHT22;36325;51.512;-0.382;2022-08-21T15:23:59;34.50;52.80
30037;DHT22;36325;51.512;-0.382;2022-08-21T15:26:27;35.40;52.60
30037;DHT22;36325;51.512;-0.382;2022-08-21T15:28:54;35.30;52.80
30037;DHT22;36325;51.512;-0.382;2022-08-21T15:31:22;34.90;53.30
30037;DHT22;36325;51.512;-0.382;2022-08-21T15:33:49;35.20;53.10
30037;DHT22;36325;51.512;-0.382;2022-08-21T15:36:16;34.70;53.40
30037;DHT22;36325;51.512;-0.382;2022-08-21T15:38:44;35.00;53.40
30037;DHT22;36325;51.512;-0.382;2022-08-21T15:41:12;34.30;53.80
30037;DHT22;36325;51.512;-0.382;2022-08-21T15:43:46;33.40;54.50
30037;DHT22;36325;51.512;-0.382;2022-08-21T15:46:16;32.50;55.70
30037;DHT22;36325;51.512;-0.382;2022-08-21T15:48:43;30.50;58.20
30037;DHT22;36325;51.512;-0.382;2022-08-21T15:51:14;30.40;58.60
30037;DHT22;36325;51.512;-0.382;2022-08-21T15:53:43;29.90;59.90
30037;DHT22;36325;51.512;-0.382;2022-08-21T15:56:23;29.40;61.60
30037;DHT22;36325;51.512;-0.382;2022-08-21T15:58:52;29.00;62.90
30037;DHT22;36325;51.512;-0.382;2022-08-21T16:01:20;28.70;63.40
30037;DHT22;36325;51.512;-0.382;2022-08-21T16:03:50;28.60;63.80
30037;DHT22;36325;51.512;-0.382;2022-08-21T16:06:19;28.80;64.30
30037;DHT22;36325;51.512;-0.382;2022-08-21T16:09:04;28.70;64.60
30037;DHT22;36325;51.512;-0.382;2022-08-21T16:11:32;28.70;65.10
30037;DHT22;36325;51.512;-0.382;2022-08-21T16:13:59;28.60;65.50
30037;DHT22;36325;51.512;-0.382;2022-08-21T16:16:26;28.50;66.10
30037;DHT22;36325;51.512;-0.382;2022-08-21T16:18:55;28.40;66.60
30037;DHT22;36325;51.512;-0.382;2022-08-21T16:21:22;28.40;66.80
30037;DHT22;36325;51.512;-0.382;2022-08-21T16:23:49;28.30;67.40
30037;DHT22;36325;51.512;-0.382;2022-08-21T16:26:16;28.80;67.30
30037;DHT22;36325;51.512;-0.382;2022-08-21T16:28:44;29.30;66.70
30037;DHT22;36325;51.512;-0.382;2022-08-21T16:31:12;29.50;66.40
30037;DHT22;36325;51.512;-0.382;2022-08-21T16:33:43;29.60;66.20
30037;DHT22;36325;51.512;-0.382;2022-08-21T16:36:11;29.90;66.10
30037;DHT22;36325;51.512;-0.382;2022-08-21T16:38:39;30.90;64.60
30037;DHT22;36325;51.512;-0.382;2022-08-21T16:41:15;32.10;62.60
30037;DHT22;36325;51.512;-0.382;2022-08-21T16:43:43;33.30;60.30
30037;DHT22;36325;51.512;-0.382;2022-08-21T16:46:12;33.90;59.00
30037;DHT22;36325;51.512;-0.382;2022-08-21T16:48:41;34.20;57.80
30037;DHT22;36325;51.512;-0.382;2022-08-21T16:51:12;34.20;57.50
30037;DHT22;36325;51.512;-0.382;2022-08-21T16:53:40;34.40;57.00
30037;DHT22;36325;51.512;-0.382;2022-08-21T16:56:09;34.30;56.60
30037;DHT22;36325;51.512;-0.382;2022-08-21T16:58:39;34.40;56.20
30037;DHT22;36325;51.512;-0.382;2022-08-21T17:01:09;34.70;56.00